Time;durP1;ratioP1;P1;durP2;ratioP2;P2;SDS_P1;SDS_P2;PMS_P1;PMS_P2;Temp;Humidity;BMP_temperature;BMP_pressure;BME280_temperature;BME280_humidity;BME280_pressure;Samples;Min_cycle;Max_cycle;Signal;HPM_P1;HPM_P2
2023/11/14 00:00:36;;;;;;;25.95;22.92;;;;;;;;;;5054018;28;20024;-52
2023/11/14 00:03:02;;;;;;;28.42;24.33;;;;;;;;;;5051882;28;20032;-51
2023/11/14 00:05:29;;;;;;;26.13;22.98;;;;;;;;;;5051702;28;20025;-51
2023/11/14 00:07:55;;;;;;;25.92;23.13;;;;;;;;;;5054006;28;20535;-56
2023/11/14 00:10:21;;;;;;;26.52;23.90;;;;;;;;;;5052633;28;20090;-54
2023/11/14 00:12:47;;;;;;;26.55;23.73;;;;;;;;;;5053975;28;20508;-54
2023/11/14 00:15:13;;;;;;;28.25;23.60;;;;;;;;;;5051635;28;20061;-51
2023/11/14 00:17:41;;;;;;;29.08;24.40;;;;;;;;;;5053792;28;20104;-54
2023/11/14 00:20:07;;;;;;;27.95;23.77;;;;;;;;;;5051691;28;20086;-52
2023/11/14 00:22:33;;;;;;;27.50;24.40;;;;;;;;;;5038603;28;20032;-54
2023/11/14 00:25:00;;;;;;;29.63;24.98;;;;;;;;;;5044051;28;20028;-53
2023/11/14 00:27:26;;;;;;;26.38;23.45;;;;;;;;;;5053747;28;20092;-52
2023/11/14 00:29:52;;;;;;;26.65;23.48;;;;;;;;;;5049611;28;20029;-56
2023/11/14 00:32:18;;;;;;;30.05;25.02;;;;;;;;;;5044573;28;20029;-55
2023/11/14 00:34:44;;;;;;;27.65;24.38;;;;;;;;;;5047274;28;20057;-56
2023/11/14 00:37:13;;;;;;;29.02;24.77;;;;;;;;;;5049148;28;20497;-54
2023/11/14 00:39:39;;;;;;;27.30;24.35;;;;;;;;;;5049558;28;20031;-56
2023/11/14 00:42:07;;;;;;;26.88;24.08;;;;;;;;;;5051555;28;20041;-55
2023/11/14 00:44:33;;;;;;;28.98;25.58;;;;;;;;;;5051045;28;20032;-52
2023/11/14 00:46:59;;;;;;;27.88;24.63;;;;;;;;;;5053270;28;20132;-53
2023/11/14 00:49:25;;;;;;;29.83;24.98;;;;;;;;;;5052032;28;20378;-56
2023/11/14 00:51:51;;;;;;;29.90;24.40;;;;;;;;;;5052134;28;20033;-56
2023/11/14 00:54:17;;;;;;;27.40;23.85;;;;;;;;;;5050808;28;20421;-56
2023/11/14 00:56:43;;;;;;;27.35;24.15;;;;;;;;;;5052870;28;20037;-56
2023/11/14 00:59:09;;;;;;;29.13;25.15;;;;;;;;;;5051813;28;20048;-55
2023/11/14 01:01:35;;;;;;;28.65;25.38;;;;;;;;;;5052299;28;20017;-56
2023/11/14 01:04:02;;;;;;;27.20;24.40;;;;;;;;;;5051690;28;20025;-55
2023/11/14 01:06:28;;;;;;;27.83;24.70;;;;;;;;;;5051686;28;20059;-55
2023/11/14 01:08:55;;;;;;;28.58;24.88;;;;;;;;;;5036442;28;20063;-56
2023/11/14 01:11:21;;;;;;;32.33;27.05;;;;;;;;;;5052663;28;20033;-54
2023/11/14 01:13:49;;;;;;;26.92;24.08;;;;;;;;;;5051463;28;20561;-55
2023/11/14 01:16:18;;;;;;;28.63;24.75;;;;;;;;;;5052119;28;20048;-56
2023/11/14 01:18:44;;;;;;;27.20;24.17;;;;;;;;;;5052043;28;20113;-57
2023/11/14 01:21:14;;;;;;;27.85;24.67;;;;;;;;;;5052642;28;20092;-55
2023/11/14 01:23:41;;;;;;;26.90;24.00;;;;;;;;;;5051809;28;20107;-55
2023/11/14 01:26:07;;;;;;;28.63;25.25;;;;;;;;;;5044210;28;20033;-56
2023/11/14 01:28:33;;;;;;;27.13;23.50;;;;;;;;;;5046325;28;20021;-53
2023/11/14 01:30:59;;;;;;;26.55;23.80;;;;;;;;;;5049174;28;20064;-52
2023/11/14 01:33:25;;;;;;;26.90;23.98;;;;;;;;;;5040318;28;20453;-53
2023/11/14 01:35:51;;;;;;;27.00;24.20;;;;;;;;;;5041489;28;20052;-57
2023/11/14 01:38:17;;;;;;;29.73;25.08;;;;;;;;;;5052406;28;20057;-57
2023/11/14 01:40:50;;;;;;;26.90;24.08;;;;;;;;;;5051156;28;20335;-56
2023/11/14 01:43:16;;;;;;;29.13;26.02;;;;;;;;;;5052596;28;20041;-56
2023/11/14 01:45:42;;;;;;;31.52;24.75;;;;;;;;;;5041018;28;20088;-55
2023/11/14 01:48:08;;;;;;;28.67;25.38;;;;;;;;;;5048249;28;20029;-55
2023/11/14 01:50:35;;;;;;;27.83;24.88;;;;;;;;;;5040826;28;20045;-56
2023/11/14 01:53:01;;;;;;;31.13;27.10;;;;;;;;;;5046273;28;20154;-51
2023/11/14 01:55:27;;;;;;;34.50;28.13;;;;;;;;;;5046277;28;20091;-54
2023/11/14 01:57:54;;;;;;;32.58;27.67;;;;;;;;;;5048799;28;20037;-55
2023/11/14 02:00:20;;;;;;;28.27;25.33;;;;;;;;;;5048820;28;20549;-53
2023/11/14 02:02:47;;;;;;;29.60;26.45;;;;;;;;;;5051663;28;20036;-56
2023/11/14 02:05:15;;;;;;;29.73;26.65;;;;;;;;;;5050389;28;20021;-53
2023/11/14 02:07:41;;;;;;;28.75;24.95;;;;;;;;;;5051934;28;20398;-52
2023/11/14 02:10:07;;;;;;;28.52;25.25;;;;;;;;;;5036392;28;20440;-55
2023/11/14 02:12:33;;;;;;;30.63;25.48;;;;;;;;;;5048175;28;20555;-53
2023/11/14 02:14:59;;;;;;;28.75;25.70;;;;;;;;;;5042872;28;20171;-55
2023/11/14 02:17:25;;;;;;;31.17;24.80;;;;;;;;;;5045971;28;20029;-53
2023/11/14 02:19:51;;;;;;;28.58;25.00;;;;;;;;;;5050312;28;20036;-53
2023/11/14 02:22:17;;;;;;;27.25;24.35;;;;;;;;;;5047305;28;20479;-53
2023/11/14 02:24:48;;;;;;;27.00;24.17;;;;;;;;;;5050094;28;20082;-54
2023/11/14 02:27:14;;;;;;;29.70;26.25;;;;;;;;;;5047013;28;20041;-55
2023/11/14 02:29:41;;;;;;;27.67;24.55;;;;;;;;;;5035987;28;20060;-52
2023/11/14 02:32:07;;;;;;;29.88;26.80;;;;;;;;;;5045841;28;20487;-56
2023/11/14 02:34:34;;;;;;;27.42;24.42;;;;;;;;;;5048302;28;20025;-53
2023/11/14 02:37:00;;;;;;;28.60;25.05;;;;;;;;;;5049086;28;20056;-57
2023/11/14 02:39:28;;;;;;;28.90;25.63;;;;;;;;;;5029403;28;20068;-53
2023/11/14 02:41:54;;;;;;;31.05;25.75;;;;;;;;;;5042310;28;20052;-58
2023/11/14 02:44:20;;;;;;;27.58;24.75;;;;;;;;;;5048536;28;20377;-52
2023/11/14 02:46:46;;;;;;;28.88;25.67;;;;;;;;;;5044721;28;20029;-52
2023/11/14 02:49:16;;;;;;;28.13;25.23;;;;;;;;;;5050034;28;20090;-53
2023/11/14 02:51:42;;;;;;;28.77;25.67;;;;;;;;;;5048805;28;20033;-52
2023/11/14 02:54:08;;;;;;;28.08;25.08;;;;;;;;;;5049960;28;20040;-51
2023/11/14 02:56:34;;;;;;;28.83;25.38;;;;;;;;;;5045078;28;20463;-54
2023/11/14 02:59:00;;;;;;;30.70;25.10;;;;;;;;;;5044592;28;20037;-55
2023/11/14 03:01:26;;;;;;;29.85;26.65;;;;;;;;;;5043526;28;20045;-54
2023/11/14 03:03:52;;;;;;;29.25;26.05;;;;;;;;;;5044903;28;20504;-53
2023/11/14 03:06:18;;;;;;;28.88;25.88;;;;;;;;;;5048965;28;20163;-54
2023/11/14 03:08:44;;;;;;;31.17;26.73;;;;;;;;;;5044821;28;20033;-53
2023/11/14 03:11:29;;;;;;;29.90;25.63;;;;;;;;;;5046772;28;20041;-53
2023/11/14 03:13:56;;;;;;;30.00;26.45;;;;;;;;;;5055864;28;20086;-54
2023/11/14 03:16:22;;;;;;;30.90;26.38;;;;;;;;;;5042652;28;20029;-53
2023/11/14 03:18:48;;;;;;;29.42;25.60;;;;;;;;;;5037933;28;20034;-54
2023/11/14 03:21:17;;;;;;;30.98;26.23;;;;;;;;;;5047337;28;20039;-52
2023/11/14 03:23:43;;;;;;;27.98;24.98;;;;;;;;;;5037335;28;20103;-51
2023/11/14 03:26:09;;;;;;;29.98;26.55;;;;;;;;;;5036354;28;20032;-51
2023/11/14 03:28:35;;;;;;;30.40;26.02;;;;;;;;;;5042868;28;20036;-53
2023/11/14 03:31:01;;;;;;;31.23;24.83;;;;;;;;;;5044675;28;20042;-54
2023/11/14 03:33:27;;;;;;;29.02;25.75;;;;;;;;;;5036333;28;20017;-51
2023/11/14 03:35:53;;;;;;;30.38;26.27;;;;;;;;;;5045861;28;20394;-53
2023/11/14 03:38:19;;;;;;;29.88;26.40;;;;;;;;;;5048055;28;20029;-55
2023/11/14 03:40:45;;;;;;;28.50;24.63;;;;;;;;;;5047704;28;20021;-53
2023/11/14 03:43:11;;;;;;;29.88;26.20;;;;;;;;;;5043342;28;20486;-51
2023/11/14 03:45:38;;;;;;;29.25;24.95;;;;;;;;;;5047695;28;20025;-52
2023/11/14 03:48:04;;;;;;;29.58;26.00;;;;;;;;;;5052069;28;20120;-54
2023/11/14 03:50:30;;;;;;;29.73;24.42;;;;;;;;;;5046071;28;20036;-55
2023/11/14 03:52:56;;;;;;;29.95;26.73;;;;;;;;;;5049091;28;20021;-54
2023/11/14 03:55:22;;;;;;;29.52;26.05;;;;;;;;;;5047106;28;20072;-52
2023/11/14 03:57:48;;;;;;;30.80;27.42;;;;;;;;;;5045253;28;20335;-55
2023/11/14 04:00:14;;;;;;;31.40;27.65;;;;;;;;;;5050522;28;20044;-52
2023/11/14 04:02:40;;;;;;;32.75;27.73;;;;;;;;;;5049752;28;20055;-54
2023/11/14 04:05:06;;;;;;;32.17;26.98;;;;;;;;;;5048730;28;20025;-54
2023/11/14 04:07:32;;;;;;;29.58;26.38;;;;;;;;;;5045654;28;20029;-56
2023/11/14 04:09:58;;;;;;;33.40;27.10;;;;;;;;;;5038951;28;20489;-55
2023/11/14 04:12:25;;;;;;;29.40;25.73;;;;;;;;;;5043425;28;20094;-56
2023/11/14 04:14:51;;;;;;;32.78;27.88;;;;;;;;;;5051991;28;20053;-56
2023/11/14 04:17:17;;;;;;;33.15;27.48;;;;;;;;;;5052623;28;20029;-56
2023/11/14 04:19:44;;;;;;;29.75;26.67;;;;;;;;;;5051897;28;20039;-55
2023/11/14 04:22:11;;;;;;;31.38;26.95;;;;;;;;;;5051627;28;20020;-56
2023/11/14 04:24:38;;;;;;;30.42;25.63;;;;;;;;;;5053848;28;20025;-54
2023/11/14 04:27:04;;;;;;;30.55;26.50;;;;;;;;;;5052454;28;20534;-52
2023/11/14 04:29:30;;;;;;;32.80;27.92;;;;;;;;;;5051002;28;20390;-54
2023/11/14 04:31:57;;;;;;;32.90;26.60;;;;;;;;;;5047917;28;20049;-54
2023/11/14 04:34:23;;;;;;;31.30;27.63;;;;;;;;;;5046486;28;20021;-53
2023/11/14 04:36:48;;;;;;;32.50;26.92;;;;;;;;;;5042066;28;20364;-55
2023/11/14 04:39:14;;;;;;;32.45;27.00;;;;;;;;;;5051095;28;20119;-54
2023/11/14 04:41:42;;;;;;;32.13;28.15;;;;;;;;;;5049008;28;20052;-52
2023/11/14 04:44:08;;;;;;;30.17;27.08;;;;;;;;;;5048302;28;20021;-53
2023/11/14 04:46:34;;;;;;;31.73;26.92;;;;;;;;;;5044282;28;20029;-56
2023/11/14 04:49:00;;;;;;;30.88;27.52;;;;;;;;;;5045997;28;20540;-57
2023/11/14 04:51:26;;;;;;;30.80;27.15;;;;;;;;;;5047413;28;20036;-52
2023/11/14 04:53:52;;;;;;;32.58;27.58;;;;;;;;;;5050402;28;20108;-56
2023/11/14 04:56:18;;;;;;;32.50;27.25;;;;;;;;;;5051904;28;20029;-56
2023/11/14 04:58:44;;;;;;;34.03;27.70;;;;;;;;;;5040614;28;20047;-57
2023/11/14 05:01:11;;;;;;;33.03;26.30;;;;;;;;;;5041971;28;20033;-57
2023/11/14 05:03:38;;;;;;;33.97;28.30;;;;;;;;;;5043457;28;20040;-57
2023/11/14 05:06:04;;;;;;;32.08;27.70;;;;;;;;;;5047379;28;20024;-54
2023/11/14 05:08:31;;;;;;;29.55;26.35;;;;;;;;;;5046342;28;20381;-56
2023/11/14 05:10:57;;;;;;;31.27;26.33;;;;;;;;;;5044557;28;20033;-55
2023/11/14 05:13:23;;;;;;;31.80;27.42;;;;;;;;;;5044406;28;20438;-54
2023/11/14 05:15:49;;;;;;;32.05;27.67;;;;;;;;;;5040611;28;20029;-55
2023/11/14 05:18:15;;;;;;;33.30;27.85;;;;;;;;;;5041005;28;20030;-56
2023/11/14 05:20:41;;;;;;;31.30;27.25;;;;;;;;;;5034893;28;20067;-54
2023/11/14 05:23:07;;;;;;;31.17;27.40;;;;;;;;;;5042222;28;20013;-55
2023/11/14 05:25:33;;;;;;;33.65;28.27;;;;;;;;;;5034259;28;20061;-54
2023/11/14 05:27:59;;;;;;;32.50;28.45;;;;;;;;;;5052562;28;20017;-52
2023/11/14 05:30:25;;;;;;;32.42;28.60;;;;;;;;;;5050029;28;20041;-56
2023/11/14 05:32:52;;;;;;;30.45;27.25;;;;;;;;;;5051018;28;20356;-54
2023/11/14 05:35:18;;;;;;;33.10;27.33;;;;;;;;;;5047813;28;20025;-57
2023/11/14 05:37:44;;;;;;;31.20;26.88;;;;;;;;;;5050008;28;20111;-53
2023/11/14 05:40:10;;;;;;;34.88;28.08;;;;;;;;;;5049234;28;20036;-57
2023/11/14 05:42:54;;;;;;;31.92;27.60;;;;;;;;;;5037149;28;20041;-54
2023/11/14 05:45:20;;;;;;;33.60;27.23;;;;;;;;;;5046242;28;20029;-58
2023/11/14 05:47:46;;;;;;;31.88;28.13;;;;;;;;;;5052248;28;20477;-57
2023/11/14 05:50:12;;;;;;;30.85;27.60;;;;;;;;;;5051285;28;20044;-56
2023/11/14 05:52:38;;;;;;;32.75;28.42;;;;;;;;;;5049370;28;20485;-53
2023/11/14 05:55:05;;;;;;;35.22;28.73;;;;;;;;;;5050176;28;20435;-58
2023/11/14 05:57:31;;;;;;;40.05;28.42;;;;;;;;;;5046642;28;20029;-57
2023/11/14 05:59:57;;;;;;;32.80;28.80;;;;;;;;;;5050816;28;20028;-66
2023/11/14 06:02:23;;;;;;;35.67;29.08;;;;;;;;;;5043364;28;20032;-56
2023/11/14 06:04:49;;;;;;;32.78;27.95;;;;;;;;;;5050614;28;20463;-57
2023/11/14 06:07:15;;;;;;;33.40;28.85;;;;;;;;;;5052027;28;20029;-54
2023/11/14 06:09:41;;;;;;;31.52;28.15;;;;;;;;;;5049678;28;20124;-56
2023/11/14 06:12:08;;;;;;;31.52;27.73;;;;;;;;;;5050797;28;20424;-55
2023/11/14 06:14:34;;;;;;;31.88;28.33;;;;;;;;;;5039267;28;20424;-56
2023/11/14 06:17:00;;;;;;;33.92;27.55;;;;;;;;;;5047113;28;20029;-54
2023/11/14 06:19:28;;;;;;;31.60;27.38;;;;;;;;;;5049710;28;20085;-55
2023/11/14 06:21:53;;;;;;;31.45;26.75;;;;;;;;;;5041271;28;20026;-54
2023/11/14 06:24:19;;;;;;;27.40;23.67;;;;;;;;;;5050208;28;20057;-56
2023/11/14 06:26:45;;;;;;;28.38;23.63;;;;;;;;;;5045791;28;20166;-54
2023/11/14 06:29:12;;;;;;;22.98;19.88;;;;;;;;;;5045789;28;20044;-60
2023/11/14 06:31:38;;;;;;;26.45;22.20;;;;;;;;;;5045987;28;20037;-52
2023/11/14 06:34:04;;;;;;;28.40;20.42;;;;;;;;;;5052696;28;20028;-56
2023/11/14 06:36:30;;;;;;;27.27;19.50;;;;;;;;;;5046224;28;20112;-52
2023/11/14 06:38:55;;;;;;;20.75;18.60;;;;;;;;;;5043616;28;20029;-54
2023/11/14 06:41:21;;;;;;;22.10;19.80;;;;;;;;;;5048138;28;20144;-54
2023/11/14 06:43:47;;;;;;;23.98;17.45;;;;;;;;;;5044248;28;20060;-54
2023/11/14 06:46:13;;;;;;;19.55;17.45;;;;;;;;;;5045829;28;20174;-54
2023/11/14 06:48:39;;;;;;;19.80;17.45;;;;;;;;;;5046802;28;20519;-56
2023/11/14 06:51:05;;;;;;;23.35;18.98;;;;;;;;;;5047805;28;20060;-53
2023/11/14 06:53:31;;;;;;;23.23;19.38;;;;;;;;;;5043792;28;20483;-54
2023/11/14 06:55:58;;;;;;;23.42;20.67;;;;;;;;;;5037198;28;20454;-55
2023/11/14 06:58:24;;;;;;;24.73;19.83;;;;;;;;;;5039360;28;20049;-54
2023/11/14 07:00:50;;;;;;;24.13;19.33;;;;;;;;;;5033527;28;20151;-50
2023/11/14 07:03:16;;;;;;;24.10;20.98;;;;;;;;;;5039715;28;20499;-52
2023/11/14 07:05:43;;;;;;;26.05;20.30;;;;;;;;;;5035810;28;20060;-55
2023/11/14 07:08:10;;;;;;;24.48;21.67;;;;;;;;;;5046063;28;20853;-51
2023/11/14 07:10:36;;;;;;;23.80;19.98;;;;;;;;;;5032443;28;20512;-55
2023/11/14 07:13:03;;;;;;;25.70;21.58;;;;;;;;;;5041593;28;20437;-53
2023/11/14 07:15:29;;;;;;;27.77;20.92;;;;;;;;;;5045055;28;20076;-51
2023/11/14 07:17:55;;;;;;;22.80;20.48;;;;;;;;;;5039740;28;20025;-51
2023/11/14 07:20:22;;;;;;;26.90;20.85;;;;;;;;;;5044180;28;20386;-52
2023/11/14 07:22:48;;;;;;;32.35;21.40;;;;;;;;;;5043488;28;20029;-54
2023/11/14 07:25:14;;;;;;;28.27;22.23;;;;;;;;;;5039364;28;20167;-51
2023/11/14 07:27:41;;;;;;;25.58;22.50;;;;;;;;;;5045509;28;20044;-51
2023/11/14 07:30:08;;;;;;;27.40;23.20;;;;;;;;;;5040028;28;20030;-51
2023/11/14 07:32:34;;;;;;;34.30;24.35;;;;;;;;;;5045073;28;20498;-54
2023/11/14 07:35:00;;;;;;;28.88;24.35;;;;;;;;;;5044471;28;20033;-54
2023/11/14 07:37:26;;;;;;;31.65;25.05;;;;;;;;;;5043713;28;20024;-52
2023/11/14 07:39:52;;;;;;;31.33;25.63;;;;;;;;;;5049751;28;20027;-57
2023/11/14 07:42:18;;;;;;;29.25;24.88;;;;;;;;;;5047809;28;20044;-51
2023/11/14 07:44:44;;;;;;;29.38;24.10;;;;;;;;;;5046731;28;20067;-56
2023/11/14 07:47:10;;;;;;;27.38;23.15;;;;;;;;;;5047349;28;20025;-54
2023/11/14 07:49:38;;;;;;;31.00;24.50;;;;;;;;;;5044696;28;20116;-54
2023/11/14 07:52:05;;;;;;;29.95;21.90;;;;;;;;;;5050019;28;20045;-54
2023/11/14 07:54:31;;;;;;;29.13;24.73;;;;;;;;;;5047054;28;20035;-53
2023/11/14 07:56:58;;;;;;;31.98;24.00;;;;;;;;;;5040320;28;20491;-66
2023/11/14 07:59:25;;;;;;;29.02;24.38;;;;;;;;;;5049005;28;20052;-55
2023/11/14 08:01:51;;;;;;;30.42;24.13;;;;;;;;;;5053610;28;20021;-57
2023/11/14 08:04:17;;;;;;;28.50;23.17;;;;;;;;;;5049660;28;20032;-56
2023/11/14 08:06:43;;;;;;;35.63;24.38;;;;;;;;;;5043749;28;20124;-56
2023/11/14 08:09:09;;;;;;;32.50;22.80;;;;;;;;;;5051628;28;20083;-54
2023/11/14 08:11:39;;;;;;;29.38;22.80;;;;;;;;;;5042523;28;20487;-56
2023/11/14 08:14:05;;;;;;;28.67;23.92;;;;;;;;;;5050806;28;20355;-59
2023/11/14 08:16:31;;;;;;;26.52;22.42;;;;;;;;;;5053865;28;20033;-58
2023/11/14 08:18:59;;;;;;;27.42;22.83;;;;;;;;;;5051695;28;20378;-58
2023/11/14 08:21:25;;;;;;;26.58;22.13;;;;;;;;;;5052492;28;20033;-56
2023/11/14 08:23:51;;;;;;;30.08;22.63;;;;;;;;;;5048731;28;20017;-58
2023/11/14 08:26:18;;;;;;;32.42;23.05;;;;;;;;;;5051010;28;20030;-58
2023/11/14 08:28:44;;;;;;;25.98;21.92;;;;;;;;;;5050421;28;20025;-56
2023/11/14 08:31:11;;;;;;;29.95;24.05;;;;;;;;;;5053416;28;20475;-56
2023/11/14 08:33:37;;;;;;;28.33;23.25;;;;;;;;;;5052484;28;20063;-58
2023/11/14 08:36:03;;;;;;;26.80;23.13;;;;;;;;;;5051722;28;20028;-55
2023/11/14 08:38:29;;;;;;;31.58;23.27;;;;;;;;;;5053595;28;20472;-58
2023/11/14 08:40:56;;;;;;;27.48;21.73;;;;;;;;;;5052824;28;20107;-71
2023/11/14 08:43:22;;;;;;;25.60;21.38;;;;;;;;;;5053456;28;20029;-60
2023/11/14 08:48:51;;;;;;;24.83;21.50;;;;;;;;;;5050719;28;20089;-61
2023/11/14 08:51:17;;;;;;;26.25;21.77;;;;;;;;;;5051008;28;20045;-63
2023/11/14 08:53:43;;;;;;;28.75;21.17;;;;;;;;;;5052312;28;20035;-64
2023/11/14 08:56:10;;;;;;;27.23;20.15;;;;;;;;;;5051782;28;20521;-61
2023/11/14 08:58:36;;;;;;;28.60;20.85;;;;;;;;;;5049434;28;20128;-66
2023/11/14 09:01:04;;;;;;;25.60;20.70;;;;;;;;;;5052908;28;20118;-66
2023/11/14 09:03:30;;;;;;;25.90;21.02;;;;;;;;;;5049659;28;20052;-55
2023/11/14 09:05:56;;;;;;;26.23;20.67;;;;;;;;;;5049577;28;20029;-60
2023/11/14 09:08:22;;;;;;;27.27;22.17;;;;;;;;;;5052890;28;20036;-64
2023/11/14 09:10:48;;;;;;;27.55;19.73;;;;;;;;;;5051263;28;20033;-63
2023/11/14 09:13:15;;;;;;;26.88;20.83;;;;;;;;;;5047674;28;20110;-64
2023/11/14 09:15:41;;;;;;;25.90;20.27;;;;;;;;;;5047329;28;20421;-66
2023/11/14 09:18:07;;;;;;;24.98;18.40;;;;;;;;;;5047073;28;20031;-72
2023/11/14 09:20:34;;;;;;;24.98;19.77;;;;;;;;;;5047513;28;20123;-69
2023/11/14 09:23:00;;;;;;;29.02;19.45;;;;;;;;;;5050626;28;20029;-73
2023/11/14 09:25:27;;;;;;;21.95;18.45;;;;;;;;;;5047244;28;20497;-67
2023/11/14 09:27:53;;;;;;;27.45;19.95;;;;;;;;;;5052598;28;20036;-72
2023/11/14 09:30:19;;;;;;;22.35;18.92;;;;;;;;;;5048993;28;20037;-70
2023/11/14 09:32:46;;;;;;;23.80;18.73;;;;;;;;;;5044157;28;20033;-67
2023/11/14 09:35:14;;;;;;;21.58;19.10;;;;;;;;;;5051200;28;20040;-72
2023/11/14 09:37:40;;;;;;;21.65;18.67;;;;;;;;;;5052168;28;20021;-68
2023/11/14 09:40:08;;;;;;;24.92;18.15;;;;;;;;;;5049515;28;20021;-64
2023/11/14 09:42:35;;;;;;;33.00;20.85;;;;;;;;;;5046863;28;20475;-72
2023/11/14 09:45:02;;;;;;;23.80;19.27;;;;;;;;;;5051622;28;20029;-64
2023/11/14 09:47:29;;;;;;;20.95;18.38;;;;;;;;;;5050784;28;20112;-61
2023/11/14 09:49:55;;;;;;;25.58;19.27;;;;;;;;;;5039361;28;20025;-64
2023/11/14 09:52:22;;;;;;;26.02;19.08;;;;;;;;;;5045655;28;20064;-64
2023/11/14 09:54:48;;;;;;;25.33;19.75;;;;;;;;;;5043599;28;20021;-63
2023/11/14 09:57:15;;;;;;;21.63;18.88;;;;;;;;;;5043888;28;20565;-63
2023/11/14 09:59:45;;;;;;;24.77;19.58;;;;;;;;;;5041143;28;20036;-70
2023/11/14 10:02:11;;;;;;;27.45;18.88;;;;;;;;;;5045397;28;20324;-69
2023/11/14 10:04:41;;;;;;;25.13;19.73;;;;;;;;;;5042596;28;20606;-72
2023/11/14 10:07:08;;;;;;;22.35;18.40;;;;;;;;;;5047485;28;20029;-76
2023/11/14 10:09:34;;;;;;;25.73;18.48;;;;;;;;;;5038427;28;20032;-65
2023/11/14 10:12:00;;;;;;;23.00;18.83;;;;;;;;;;5050541;28;20041;-64
2023/11/14 10:14:26;;;;;;;27.70;19.63;;;;;;;;;;5048551;28;20032;-65
2023/11/14 10:16:58;;;;;;;27.02;19.88;;;;;;;;;;5052269;28;20061;-67
2023/11/14 10:19:25;;;;;;;26.75;21.13;;;;;;;;;;5050245;28;20132;-65
2023/11/14 10:21:51;;;;;;;22.33;19.92;;;;;;;;;;5050412;28;20402;-64
2023/11/14 10:24:17;;;;;;;33.13;21.63;;;;;;;;;;5041177;28;20013;-63
2023/11/14 10:26:53;;;;;;;25.65;20.27;;;;;;;;;;5041079;28;20367;-64
2023/11/14 10:29:23;;;;;;;29.73;22.60;;;;;;;;;;5049800;28;20036;-66
2023/11/14 10:31:50;;;;;;;29.23;22.63;;;;;;;;;;5049956;28;20119;-71
2023/11/14 10:34:36;;;;;;;26.67;22.45;;;;;;;;;;5047924;28;20025;-65
2023/11/14 10:37:02;;;;;;;31.02;22.98;;;;;;;;;;5051072;28;20078;-63
2023/11/14 10:39:29;;;;;;;33.20;24.20;;;;;;;;;;5050756;28;20501;-72
2023/11/14 10:41:57;;;;;;;30.88;23.05;;;;;;;;;;5051256;28;20057;-65
2023/11/14 10:44:23;;;;;;;27.90;23.90;;;;;;;;;;5045494;28;20029;-61
2023/11/14 10:46:51;;;;;;;33.85;26.35;;;;;;;;;;5045531;28;20028;-64
2023/11/14 10:49:17;;;;;;;27.67;24.67;;;;;;;;;;5054069;28;20078;-64
2023/11/14 10:51:45;;;;;;;33.00;26.25;;;;;;;;;;5054656;28;20037;-64
2023/11/14 10:54:12;;;;;;;31.25;26.00;;;;;;;;;;5055341;28;20075;-64
2023/11/14 10:56:38;;;;;;;31.27;25.63;;;;;;;;;;5054371;28;20025;-66
2023/11/14 10:59:12;;;;;;;30.60;25.95;;;;;;;;;;5055505;28;20381;-72
2023/11/14 11:01:38;;;;;;;27.92;24.75;;;;;;;;;;5048549;28;20025;-67
2023/11/14 11:04:05;;;;;;;27.90;24.90;;;;;;;;;;5051340;28;20028;-68
2023/11/14 11:06:31;;;;;;;27.35;23.83;;;;;;;;;;5050728;28;20025;-62
2023/11/14 11:08:58;;;;;;;26.35;23.45;;;;;;;;;;5055343;28;20043;-62
2023/11/14 11:11:28;;;;;;;29.67;24.35;;;;;;;;;;5050084;28;20044;-63
2023/11/14 11:13:55;;;;;;;28.00;24.70;;;;;;;;;;5055539;28;20128;-63
2023/11/14 11:16:42;;;;;;;29.67;23.65;;;;;;;;;;5051451;28;20048;-63
2023/11/14 11:19:12;;;;;;;28.88;23.02;;;;;;;;;;5042390;28;20021;-64
2023/11/14 11:21:38;;;;;;;26.02;22.77;;;;;;;;;;5051386;28;20025;-57
2023/11/14 11:24:05;;;;;;;27.88;21.73;;;;;;;;;;5054832;28;20032;-57
2023/11/14 11:26:31;;;;;;;27.30;23.40;;;;;;;;;;5052062;28;20112;-56
2023/11/14 11:28:59;;;;;;;32.33;24.50;;;;;;;;;;5042874;28;20382;-54
2023/11/14 11:31:25;;;;;;;31.65;24.38;;;;;;;;;;5051828;28;20090;-55
2023/11/14 11:33:51;;;;;;;33.10;26.35;;;;;;;;;;5052925;28;20036;-57
2023/11/14 11:36:23;;;;;;;31.17;25.42;;;;;;;;;;5054298;28;20489;-57
2023/11/14 11:38:52;;;;;;;29.90;25.17;;;;;;;;;;5054654;28;20382;-56
2023/11/14 11:41:19;;;;;;;29.45;25.08;;;;;;;;;;5051943;28;20127;-54
2023/11/14 11:43:45;;;;;;;31.55;25.95;;;;;;;;;;5050918;28;20487;-57
2023/11/14 11:46:29;;;;;;;28.75;25.17;;;;;;;;;;5053066;28;20032;-57
2023/11/14 11:48:55;;;;;;;29.75;25.55;;;;;;;;;;5051647;28;20021;-56
2023/11/14 11:51:23;;;;;;;31.67;25.13;;;;;;;;;;5052944;28;20048;-57
2023/11/14 11:53:49;;;;;;;32.17;26.50;;;;;;;;;;5044245;28;20025;-57
2023/11/14 11:56:34;;;;;;;29.50;25.90;;;;;;;;;;5052170;28;20029;-57
2023/11/14 11:59:01;;;;;;;33.78;25.35;;;;;;;;;;5038653;28;20071;-56
2023/11/14 12:01:29;;;;;;;33.13;24.60;;;;;;;;;;5043124;28;20021;-56
2023/11/14 12:04:02;;;;;;;34.72;25.77;;;;;;;;;;5052764;28;20379;-55
2023/11/14 12:06:28;;;;;;;27.45;23.35;;;;;;;;;;5051389;28;20151;-56
2023/11/14 12:08:55;;;;;;;29.65;24.52;;;;;;;;;;5052927;28;20067;-56
2023/11/14 12:11:24;;;;;;;33.47;26.85;;;;;;;;;;5050327;28;20055;-57
2023/11/14 12:13:55;;;;;;;33.83;24.98;;;;;;;;;;5050631;28;20053;-57
2023/11/14 12:16:22;;;;;;;31.50;25.10;;;;;;;;;;5050808;28;20469;-57
2023/11/14 12:18:48;;;;;;;31.17;25.27;;;;;;;;;;5052759;28;20021;-57
2023/11/14 12:21:16;;;;;;;31.65;25.65;;;;;;;;;;5051957;28;20482;-57
2023/11/14 12:23:42;;;;;;;31.17;24.33;;;;;;;;;;5052420;28;20028;-57
2023/11/14 12:26:08;;;;;;;31.92;26.08;;;;;;;;;;5049209;28;20030;-57
2023/11/14 12:28:41;;;;;;;35.83;26.67;;;;;;;;;;5052367;28;20032;-56
2023/11/14 12:31:12;;;;;;;40.42;28.63;;;;;;;;;;5050140;28;20063;-57
2023/11/14 12:33:45;;;;;;;32.25;27.58;;;;;;;;;;5047147;28;20079;-57
2023/11/14 12:36:21;;;;;;;32.55;25.73;;;;;;;;;;5048473;28;20025;-58
2023/11/14 12:38:47;;;;;;;34.53;26.00;;;;;;;;;;5051622;28;20139;-56
2023/11/14 12:41:16;;;;;;;29.58;25.10;;;;;;;;;;5000626;28;1479707;-57
2023/11/14 12:43:43;;;;;;;29.35;25.17;;;;;;;;;;5051089;28;20051;-56
2023/11/14 12:46:09;;;;;;;28.00;24.80;;;;;;;;;;5050820;28;20416;-57
2023/11/14 12:48:35;;;;;;;31.00;25.23;;;;;;;;;;5048865;28;20035;-57
2023/11/14 12:51:01;;;;;;;31.70;25.15;;;;;;;;;;5047805;28;20041;-57
2023/11/14 12:53:31;;;;;;;35.17;29.08;;;;;;;;;;5052245;28;20024;-56
2023/11/14 12:55:59;;;;;;;38.72;26.95;;;;;;;;;;5052503;28;20449;-57
2023/11/14 12:58:26;;;;;;;34.45;26.63;;;;;;;;;;5050906;28;20087;-58
2023/11/14 13:00:52;;;;;;;35.70;26.60;;;;;;;;;;5033206;28;20053;-56
2023/11/14 13:03:18;;;;;;;36.45;28.55;;;;;;;;;;5048642;28;20048;-58
2023/11/14 13:05:44;;;;;;;32.13;27.20;;;;;;;;;;5049641;28;20490;-58
2023/11/14 13:08:10;;;;;;;35.17;27.85;;;;;;;;;;5050534;28;20036;-58
2023/11/14 13:10:38;;;;;;;32.50;27.13;;;;;;;;;;5052189;28;20099;-58
2023/11/14 13:13:04;;;;;;;32.20;27.55;;;;;;;;;;5051938;28;20371;-58
2023/11/14 13:15:30;;;;;;;38.25;26.65;;;;;;;;;;5052744;28;20021;-56
2023/11/14 13:17:56;;;;;;;35.47;27.55;;;;;;;;;;5051226;28;20470;-56
2023/11/14 13:20:22;;;;;;;39.78;29.17;;;;;;;;;;5050334;28;20140;-58
2023/11/14 13:22:48;;;;;;;35.85;28.23;;;;;;;;;;5051096;28;20068;-57
2023/11/14 13:25:15;;;;;;;32.65;28.30;;;;;;;;;;5045227;28;21657;-58
2023/11/14 13:27:41;;;;;;;35.33;28.20;;;;;;;;;;5044178;28;20033;-57
2023/11/14 13:30:07;;;;;;;35.53;28.05;;;;;;;;;;5043726;28;20025;-55
2023/11/14 13:32:34;;;;;;;38.50;28.77;;;;;;;;;;5050726;28;20060;-57
2023/11/14 13:35:00;;;;;;;36.17;29.48;;;;;;;;;;5047026;28;20036;-58
2023/11/14 13:37:26;;;;;;;36.15;30.02;;;;;;;;;;5044347;28;20021;-58
2023/11/14 13:39:52;;;;;;;40.55;31.98;;;;;;;;;;5044678;28;20024;-57
2023/11/14 13:42:24;;;;;;;42.95;33.72;;;;;;;;;;5051995;28;20052;-57
2023/11/14 13:44:50;;;;;;;43.60;32.97;;;;;;;;;;5049101;28;20032;-57
2023/11/14 13:47:16;;;;;;;42.25;31.92;;;;;;;;;;5048270;28;20021;-58
2023/11/14 13:49:42;;;;;;;44.42;34.00;;;;;;;;;;5051356;28;20060;-58
2023/11/14 13:52:08;;;;;;;38.92;32.05;;;;;;;;;;5049194;28;20037;-57
2023/11/14 13:54:35;;;;;;;41.45;34.45;;;;;;;;;;5047750;28;20306;-60
2023/11/14 13:57:02;;;;;;;47.08;36.00;;;;;;;;;;5042043;28;20324;-61
2023/11/14 13:59:28;;;;;;;45.47;34.00;;;;;;;;;;5038400;28;20011;-61
2023/11/14 14:01:54;;;;;;;45.85;35.30;;;;;;;;;;5047174;28;20047;-66
2023/11/14 14:04:20;;;;;;;45.42;34.58;;;;;;;;;;5047943;28;20036;-66
2023/11/14 14:06:47;;;;;;;45.50;34.95;;;;;;;;;;5050740;28;20078;-62
2023/11/14 14:09:13;;;;;;;46.63;35.22;;;;;;;;;;5061921;28;20025;-64
2023/11/14 14:11:40;;;;;;;46.50;34.88;;;;;;;;;;5043670;28;20024;-61
2023/11/14 14:14:06;;;;;;;44.03;34.13;;;;;;;;;;5039230;28;20028;-66
2023/11/14 14:16:32;;;;;;;47.58;36.05;;;;;;;;;;5043913;28;20024;-65